createdAt,value
2023-05-04T00:02:16.416Z,102099.33
2023-05-04T00:04:49.728Z,102099.02
2023-05-04T00:07:20.532Z,102100.23
2023-05-04T00:09:54.095Z,102104.92
2023-05-04T00:12:24.488Z,102106.11
2023-05-04T00:14:55.709Z,102108.93
2023-05-04T00:17:28.184Z,102104.11
2023-05-04T00:20:01.669Z,102109.02
2023-05-04T00:22:42.924Z,102109.92
2023-05-04T00:25:15.676Z,102106.94
2023-05-04T00:27:47.084Z,102104.15
2023-05-04T00:30:21.285Z,102099.05
2023-05-04T00:32:54.441Z,102098.04
2023-05-04T00:35:25.683Z,102101.42
2023-05-04T00:37:57.935Z,102100.83
2023-05-04T00:40:30.932Z,102097.41
2023-05-04T00:43:03.544Z,102097.02
2023-05-04T00:45:38.690Z,102098.54
2023-05-04T00:48:12.006Z,102099.13
2023-05-04T00:50:44.422Z,102096.76
2023-05-04T00:53:16.619Z,102098.84
2023-05-04T00:55:48.339Z,102097.54
2023-05-04T00:58:20.811Z,102097.64
2023-05-04T01:00:52.515Z,102098.77
2023-05-04T01:03:24.275Z,102098.69
2023-05-04T01:06:12.489Z,102095.84
2023-05-04T01:08:52.403Z,102101.54
2023-05-04T01:11:35.094Z,102099.69
2023-05-04T01:14:06.491Z,102097.08
2023-05-04T01:16:42.381Z,102095.49
2023-05-04T01:19:15.376Z,102092.20
2023-05-04T01:21:50.620Z,102091.98
2023-05-04T01:24:24.350Z,102093.02
2023-05-04T01:27:03.802Z,102097.15
2023-05-04T01:29:55.405Z,102098.39
2023-05-04T01:32:29.628Z,102103.02
2023-05-04T01:35:00.706Z,102103.57
2023-05-04T01:37:39.439Z,102099.42
2023-05-04T01:40:17.610Z,102104.04
2023-05-04T01:42:50.278Z,102101.39
2023-05-04T01:45:22.872Z,102100.95
2023-05-04T01:47:57.912Z,102100.16
2023-05-04T01:50:32.124Z,102101.67
2023-05-04T01:53:06.099Z,102101.42
2023-05-04T01:55:40.766Z,102099.05
2023-05-04T01:58:14.240Z,102096.52
2023-05-04T02:00:53.868Z,102096.94
2023-05-04T02:03:27.055Z,102092.54
2023-05-04T02:06:00.804Z,102094.85
2023-05-04T02:08:34.022Z,102094.45
2023-05-04T02:11:07.936Z,102091.89
2023-05-04T02:13:40.547Z,102095.23
2023-05-04T02:16:12.851Z,102093.23
2023-05-04T02:18:44.402Z,102091.61
2023-05-04T02:21:18.424Z,102092.26
2023-05-04T02:23:55.299Z,102092.73
2023-05-04T02:26:27.262Z,102089.95
2023-05-04T02:29:05.299Z,102093.61
2023-05-04T02:31:48.705Z,102093.65
2023-05-04T02:34:21.830Z,102093.83
2023-05-04T02:36:52.506Z,102090.09
2023-05-04T02:39:25.441Z,102092.42
2023-05-04T02:41:57.771Z,102093.92
2023-05-04T02:44:29.323Z,102092.30
2023-05-04T02:47:02.077Z,102085.69
2023-05-04T02:49:35.022Z,102088.02
2023-05-04T02:52:09.848Z,102086.95
2023-05-04T02:54:43.513Z,102082.70
2023-05-04T02:57:15.846Z,102081.95
2023-05-04T02:59:50.656Z,102082.92
2023-05-04T03:02:24.923Z,102088.83
2023-05-04T03:04:57.620Z,102091.26
2023-05-04T03:07:29.751Z,102091.72
2023-05-04T03:10:02.573Z,102086.39
2023-05-04T03:12:36.107Z,102088.67
2023-05-04T03:15:09.354Z,102084.46
2023-05-04T03:17:44.105Z,102079.21
2023-05-04T03:20:18.672Z,102078.23
2023-05-04T03:22:52.501Z,102082.91
2023-05-04T03:25:25.064Z,102083.46
2023-05-04T03:27:58.608Z,102078.64
2023-05-04T03:30:31.597Z,102075.77
2023-05-04T03:33:05.695Z,102077.59
2023-05-04T03:35:39.765Z,102075.27
2023-05-04T03:38:13.172Z,102078.05
2023-05-04T03:40:46.592Z,102075.23
2023-05-04T03:43:21.531Z,102080.70
2023-05-04T03:45:55.642Z,102076.75
2023-05-04T03:48:30.642Z,102083.02
2023-05-04T03:51:04.308Z,102093.40
2023-05-04T03:53:37.260Z,102093.48
2023-05-04T03:56:11.655Z,102089.09
2023-05-04T03:58:45.418Z,102087.20
2023-05-04T04:01:17.538Z,102085.12
2023-05-04T04:03:50.979Z,102082.10
2023-05-04T04:06:25.445Z,102085.73
2023-05-04T04:08:59.741Z,102087.18
2023-05-04T04:11:33.285Z,102084.98
2023-05-04T04:14:04.868Z,102087.88
2023-05-04T04:16:35.774Z,102088.47
2023-05-04T04:19:07.696Z,102089.77
2023-05-04T04:21:39.621Z,102090.70
2023-05-04T04:24:12.418Z,102089.89
2023-05-04T04:26:45.404Z,102090.29
2023-05-04T04:29:18.558Z,102090.77
2023-05-04T04:31:51.064Z,102090.10
2023-05-04T04:34:24.557Z,102092.18
2023-05-04T04:36:57.317Z,102092.63
2023-05-04T04:39:29.184Z,102094.03
2023-05-04T04:42:01.282Z,102094.67
2023-05-04T04:44:33.790Z,102089.21
2023-05-04T04:47:06.928Z,102088.86
2023-05-04T04:49:38.829Z,102086.52
2023-05-04T04:52:13.557Z,102089.70
2023-05-04T04:54:47.143Z,102088.92
2023-05-04T04:57:19.874Z,102086.02
2023-05-04T04:59:52.938Z,102088.16
2023-05-04T05:02:29.912Z,102083.45
2023-05-04T05:05:03.991Z,102086.77
2023-05-04T05:07:37.765Z,102087.70
2023-05-04T05:10:14.471Z,102084.63
2023-05-04T05:12:46.725Z,102083.84
2023-05-04T05:15:19.026Z,102078.25
2023-05-04T05:17:52.565Z,102081.02
2023-05-04T05:20:27.105Z,102081.05
2023-05-04T05:23:02.106Z,102079.98
2023-05-04T05:25:33.592Z,102079.41
2023-05-04T05:28:05.613Z,102078.78
2023-05-04T05:30:41.252Z,102080.27
2023-05-04T05:33:16.141Z,102083.09
2023-05-04T05:35:48.525Z,102083.91
2023-05-04T05:38:21.740Z,102079.66
2023-05-04T05:40:53.923Z,102081.63
2023-05-04T05:43:26.064Z,102083.27
2023-05-04T05:45:57.644Z,102083.14
2023-05-04T05:48:32.730Z,102087.55
2023-05-04T05:51:05.645Z,102084.14
2023-05-04T05:53:38.284Z,102082.02
2023-05-04T05:56:11.645Z,102081.42
2023-05-04T05:58:44.060Z,102081.35
2023-05-04T06:01:17.737Z,102076.16
2023-05-04T06:03:51.753Z,102074.51
2023-05-04T06:06:25.104Z,102074.84
2023-05-04T06:09:00.228Z,102075.33
2023-05-04T06:11:34.227Z,102076.33
2023-05-04T06:14:06.726Z,102077.47
2023-05-04T06:16:38.139Z,102079.20
2023-05-04T06:19:13.625Z,102080.91
2023-05-04T06:21:46.031Z,102083.52
2023-05-04T06:24:17.816Z,102076.38
2023-05-04T06:26:50.126Z,102076.92
2023-05-04T06:29:22.704Z,102077.84
2023-05-04T06:31:55.246Z,102074.80
2023-05-04T06:34:26.643Z,102073.20
2023-05-04T06:36:59.958Z,102075.17
2023-05-04T06:39:31.699Z,102071.30
2023-05-04T06:42:04.980Z,102070.28
2023-05-04T06:44:42.487Z,102069.94
2023-05-04T06:47:15.898Z,102069.18
2023-05-04T06:49:47.755Z,102064.43
2023-05-04T06:52:21.686Z,102068.79
2023-05-04T06:54:55.892Z,102068.27
2023-05-04T06:57:28.777Z,102068.05
2023-05-04T07:00:06.178Z,102067.89
2023-05-04T07:02:38.126Z,102068.01
2023-05-04T07:05:11.438Z,102066.55
2023-05-04T07:07:45.353Z,102070.32
2023-05-04T07:10:16.148Z,102066.74
2023-05-04T07:12:48.306Z,102066.41
2023-05-04T07:15:20.390Z,102065.72
2023-05-04T07:17:54.205Z,102061.28
2023-05-04T07:20:28.117Z,102056.58
2023-05-04T07:23:04.161Z,102060.84
2023-05-04T07:25:36.289Z,102058.89
2023-05-04T07:28:09.171Z,102055.55
2023-05-04T07:30:43.404Z,102053.98
2023-05-04T07:33:14.484Z,102047.83
2023-05-04T07:35:46.915Z,102050.46
2023-05-04T07:38:20.225Z,102047.59
2023-05-04T07:40:53.161Z,102046.65
2023-05-04T07:43:24.992Z,102044.23
2023-05-04T07:45:57.733Z,102044.07
2023-05-04T07:48:30.698Z,102042.41
2023-05-04T07:51:03.362Z,102040.45
2023-05-04T07:53:35.736Z,102032.05
2023-05-04T07:56:12.565Z,102030.27
2023-05-04T07:58:46.206Z,102033.93
2023-05-04T08:01:20.064Z,102032.33
2023-05-04T08:03:52.784Z,102031.87
2023-05-04T08:06:24.102Z,102030.00
2023-05-04T08:08:57.490Z,102025.79
2023-05-04T08:11:28.957Z,102020.55
2023-05-04T08:14:02.196Z,102020.33
2023-05-04T08:16:36.486Z,102011.06
2023-05-04T08:19:09.889Z,102014.13
2023-05-04T08:21:41.580Z,102011.27
2023-05-04T08:24:11.691Z,102008.08
2023-05-04T08:26:49.553Z,102007.20
2023-05-04T08:29:31.156Z,102009.40
2023-05-04T08:32:04.182Z,102003.42
2023-05-04T08:34:40.802Z,102005.66
2023-05-04T08:37:13.432Z,102011.18
2023-05-04T08:39:46.360Z,102003.98
2023-05-04T08:42:28.521Z,102004.02
2023-05-04T08:45:01.576Z,101999.06
2023-05-04T08:47:34.495Z,101999.33
2023-05-04T08:50:08.032Z,102005.29
2023-05-04T08:52:45.226Z,102001.57
2023-05-04T08:55:17.896Z,101999.84
2023-05-04T08:57:52.246Z,101998.91
2023-05-04T09:00:26.788Z,101997.45
2023-05-04T09:02:59.766Z,101998.48
2023-05-04T09:05:30.334Z,101994.33
2023-05-04T09:08:00.454Z,102000.48
2023-05-04T09:10:35.708Z,101994.12
2023-05-04T09:13:07.688Z,101996.74
2023-05-04T09:15:39.509Z,101999.55
2023-05-04T09:18:12.475Z,102001.23
2023-05-04T09:21:04.268Z,101997.02
2023-05-04T09:23:44.837Z,101998.48
2023-05-04T09:26:27.000Z,101990.56
2023-05-04T09:28:58.974Z,101990.09
2023-05-04T09:31:41.593Z,101987.77
2023-05-04T09:34:15.930Z,101983.83
2023-05-04T09:36:58.093Z,101978.00
2023-05-04T09:39:34.623Z,101977.64
2023-05-04T09:42:05.261Z,101975.21
2023-05-04T09:44:37.094Z,101971.02
2023-05-04T09:47:08.582Z,101973.99
2023-05-04T09:49:43.312Z,101978.16
2023-05-04T09:52:15.373Z,101971.74
2023-05-04T09:54:48.335Z,101967.56
2023-05-04T09:57:22.445Z,101967.05
2023-05-04T09:59:55.906Z,101965.42
2023-05-04T10:02:27.204Z,101961.34
2023-05-04T10:05:02.425Z,101954.54
2023-05-04T10:07:40.415Z,101960.27
2023-05-04T10:10:16.515Z,101959.98
2023-05-04T10:12:50.960Z,101949.98
2023-05-04T10:15:24.309Z,101944.78
2023-05-04T10:18:13.314Z,101937.69
2023-05-04T10:21:01.887Z,101936.34
2023-05-04T10:24:03.024Z,101932.13
2023-05-04T10:26:53.492Z,101930.13
2023-05-04T10:29:28.617Z,101930.36
2023-05-04T10:32:02.585Z,101922.89
2023-05-04T10:34:35.112Z,101915.93
2023-05-04T10:37:18.888Z,101913.93
2023-05-04T10:39:56.827Z,101915.91
2023-05-04T10:42:33.058Z,101917.01
2023-05-04T10:45:04.670Z,101920.04
2023-05-04T10:47:36.660Z,101912.32
2023-05-04T10:50:12.398Z,101909.19
2023-05-04T10:52:52.120Z,101904.42
2023-05-04T10:55:26.040Z,101901.54
2023-05-04T10:57:59.380Z,101903.34
2023-05-04T11:00:40.495Z,101902.25
2023-05-04T11:03:14.667Z,101895.42
2023-05-04T11:05:51.485Z,101893.06
2023-05-04T11:08:24.778Z,101887.30
2023-05-04T11:11:06.272Z,101884.11
2023-05-04T11:13:45.704Z,101879.30
2023-05-04T11:16:24.494Z,101878.63
2023-05-04T11:19:08.579Z,101879.07
2023-05-04T11:21:41.633Z,101877.79
2023-05-04T11:24:13.241Z,101876.77
2023-05-04T11:26:52.478Z,101870.23
2023-05-04T11:29:24.373Z,101875.79
2023-05-04T11:32:01.448Z,101863.02
2023-05-04T11:34:32.418Z,101866.23
2023-05-04T11:37:05.865Z,101860.48
2023-05-04T11:39:39.140Z,101857.94
2023-05-04T11:42:13.113Z,101854.11
2023-05-04T11:44:45.473Z,101853.17
2023-05-04T11:47:18.022Z,101849.98
2023-05-04T11:49:50.899Z,101846.52
2023-05-04T11:52:32.588Z,101843.02
2023-05-04T11:55:05.654Z,101844.17
2023-05-04T11:57:37.657Z,101841.08
2023-05-04T12:00:13.146Z,101839.73
2023-05-04T12:02:47.155Z,101840.14
2023-05-04T12:05:20.180Z,101838.73
2023-05-04T12:07:52.525Z,101837.94
2023-05-04T12:10:34.928Z,101839.42
2023-05-04T12:13:18.720Z,101836.80
2023-05-04T12:15:52.117Z,101839.56
2023-05-04T12:18:29.915Z,101834.17
2023-05-04T12:21:15.049Z,101830.77
2023-05-04T12:23:49.007Z,101826.67
2023-05-04T12:26:21.614Z,101825.95
2023-05-04T12:28:54.206Z,101821.58
2023-05-04T12:31:27.369Z,101820.38
2023-05-04T12:34:01.471Z,101818.08
2023-05-04T12:36:34.883Z,101818.79
2023-05-04T12:39:06.275Z,101810.59
2023-05-04T12:41:40.224Z,101811.29
2023-05-04T12:44:13.672Z,101804.25
2023-05-04T12:46:45.414Z,101803.00
2023-05-04T12:49:17.123Z,101804.26
2023-05-04T12:51:48.852Z,101796.52
2023-05-04T12:54:22.562Z,101790.42
2023-05-04T12:56:54.609Z,101796.05
2023-05-04T12:59:27.066Z,101800.54
2023-05-04T13:02:01.318Z,101800.69
2023-05-04T13:04:34.560Z,101799.52
2023-05-04T13:07:06.742Z,101797.24
2023-05-04T13:09:40.183Z,101796.50
2023-05-04T13:12:13.301Z,101795.05
2023-05-04T13:14:46.252Z,101796.42
2023-05-04T13:17:19.393Z,101791.09
2023-05-04T13:19:57.082Z,101790.98
2023-05-04T13:22:37.069Z,101784.61
2023-05-04T13:25:11.366Z,101780.78
2023-05-04T13:27:44.836Z,101782.16
2023-05-04T13:30:20.555Z,101780.80
2023-05-04T13:32:52.951Z,101782.75
2023-05-04T13:35:25.326Z,101783.95
2023-05-04T13:37:56.087Z,101777.21
2023-05-04T13:40:27.929Z,101768.73
2023-05-04T13:43:02.636Z,101757.15
2023-05-04T13:45:36.073Z,101751.83
2023-05-04T13:48:09.910Z,101747.10
2023-05-04T13:50:42.723Z,101742.59
2023-05-04T13:53:22.820Z,101743.05
2023-05-04T13:55:55.093Z,101742.29
2023-05-04T13:58:26.748Z,101740.90
2023-05-04T14:01:02.126Z,101737.85
2023-05-04T14:03:37.102Z,101735.77
2023-05-04T14:06:11.979Z,101736.48
2023-05-04T14:08:46.580Z,101733.70
2023-05-04T14:11:20.505Z,101730.27
2023-05-04T14:13:55.098Z,101726.21
2023-05-04T14:16:37.366Z,101724.38
2023-05-04T14:19:12.563Z,101727.02
2023-05-04T14:21:48.936Z,101726.42
2023-05-04T14:24:26.055Z,101725.98
2023-05-04T14:27:00.678Z,101719.92
2023-05-04T14:29:34.154Z,101717.91
2023-05-04T14:32:08.317Z,101720.11
2023-05-04T14:34:41.487Z,101716.07
2023-05-04T14:37:16.311Z,101718.47
2023-05-04T14:39:53.888Z,101711.78
2023-05-04T14:42:35.349Z,101705.17
2023-05-04T14:45:17.548Z,101702.88
2023-05-04T14:47:51.359Z,101696.34
2023-05-04T14:50:26.337Z,101694.70
2023-05-04T14:53:18.526Z,101694.30
2023-05-04T14:55:53.804Z,101694.56
2023-05-04T14:58:30.376Z,101690.42
2023-05-04T15:01:03.283Z,101686.48
2023-05-04T15:03:42.827Z,101678.50
2023-05-04T15:06:25.329Z,101674.36
2023-05-04T15:08:57.519Z,101676.77
2023-05-04T15:11:32.681Z,101679.17
2023-05-04T15:14:08.162Z,101674.77
2023-05-04T15:16:51.257Z,101676.20
2023-05-04T15:19:27.475Z,101673.17
2023-05-04T15:22:02.530Z,101672.70
2023-05-04T15:24:36.727Z,101666.73
2023-05-04T15:27:15.341Z,101668.83
2023-05-04T15:29:49.424Z,101668.69
2023-05-04T15:32:32.365Z,101665.35
2023-05-04T15:35:07.187Z,101658.33
2023-05-04T15:37:42.645Z,101658.50
2023-05-04T15:40:20.174Z,101660.45
2023-05-04T15:43:01.734Z,101658.74
2023-05-04T15:45:35.334Z,101653.74
2023-05-04T15:48:13.883Z,101654.67
2023-05-04T15:50:53.398Z,101658.77
2023-05-04T15:53:25.240Z,101657.09
2023-05-04T15:55:58.399Z,101656.01
2023-05-04T15:58:41.075Z,101651.64
2023-05-04T16:01:14.486Z,101648.51
2023-05-04T16:03:55.237Z,101641.59
2023-05-04T16:06:28.368Z,101646.03
2023-05-04T16:09:06.924Z,101648.41
2023-05-04T16:11:39.540Z,101642.61
2023-05-04T16:14:13.734Z,101639.83
2023-05-04T16:16:49.182Z,101637.80
2023-05-04T16:19:26.025Z,101634.29
2023-05-04T16:22:01.410Z,101633.16
2023-05-04T16:24:33.540Z,101633.96
2023-05-04T16:27:09.664Z,101636.27
2023-05-04T16:29:49.502Z,101638.17
2023-05-04T16:32:23.940Z,101636.96
2023-05-04T16:34:56.314Z,101637.59
2023-05-04T16:37:27.376Z,101640.01
2023-05-04T16:40:00.561Z,101630.80
2023-05-04T16:42:33.842Z,101623.06
2023-05-04T16:45:08.240Z,101625.47
2023-05-04T16:47:43.990Z,101626.67
2023-05-04T16:50:21.514Z,101624.12
2023-05-04T16:52:54.962Z,101626.75
2023-05-04T16:55:29.457Z,101630.00
2023-05-04T16:58:05.684Z,101627.71
2023-05-04T17:00:43.774Z,101625.05
2023-05-04T17:03:17.033Z,101626.25
2023-05-04T17:06:09.234Z,101630.14
2023-05-04T17:08:44.558Z,101633.58
2023-05-04T17:11:22.469Z,101635.36
2023-05-04T17:13:54.904Z,101636.55
2023-05-04T17:16:27.307Z,101633.33
2023-05-04T17:19:02.597Z,101637.86
2023-05-04T17:21:35.435Z,101634.86
2023-05-04T17:24:16.051Z,101629.29
2023-05-04T17:26:48.960Z,101625.84
2023-05-04T17:29:21.338Z,101630.87
2023-05-04T17:31:58.518Z,101630.56
2023-05-04T17:34:30.667Z,101635.50
2023-05-04T17:37:06.822Z,101637.64
2023-05-04T17:39:42.664Z,101637.21
2023-05-04T17:42:16.713Z,101639.98
2023-05-04T17:44:48.196Z,101638.42
2023-05-04T17:47:26.016Z,101637.09
2023-05-04T17:49:59.860Z,101642.92
2023-05-04T17:52:34.314Z,101640.86
2023-05-04T17:55:11.921Z,101643.80
2023-05-04T17:57:45.707Z,101644.85
2023-05-04T18:00:28.229Z,101650.77
2023-05-04T18:03:00.121Z,101656.60
2023-05-04T18:05:33.294Z,101656.39
2023-05-04T18:08:09.211Z,101657.43
2023-05-04T18:10:43.745Z,101661.60
2023-05-04T18:13:15.331Z,101661.08
2023-05-04T18:15:48.570Z,101663.85
2023-05-04T18:18:22.252Z,101665.58
2023-05-04T18:20:54.811Z,101667.83
2023-05-04T18:23:33.915Z,101669.27
2023-05-04T18:26:07.295Z,101672.12
2023-05-04T18:28:42.961Z,101675.00
2023-05-04T18:31:16.455Z,101678.30
2023-05-04T18:33:50.990Z,101680.83
2023-05-04T18:36:23.948Z,101685.58
2023-05-04T18:38:59.248Z,101682.02
2023-05-04T18:41:34.447Z,101687.20
2023-05-04T18:44:22.263Z,101691.28
2023-05-04T18:46:59.568Z,101691.67
2023-05-04T18:49:33.089Z,101691.20
2023-05-04T18:52:24.539Z,101692.27
2023-05-04T18:54:59.028Z,101694.00
2023-05-04T18:57:31.490Z,101696.71
2023-05-04T19:00:07.274Z,101697.34
2023-05-04T19:02:42.515Z,101699.67
2023-05-04T19:05:17.752Z,101696.90
2023-05-04T19:07:49.976Z,101701.48
2023-05-04T19:10:22.999Z,101701.77
2023-05-04T19:12:57.814Z,101703.52
2023-05-04T19:15:30.137Z,101707.38
2023-05-04T19:18:01.204Z,101706.79
2023-05-04T19:20:34.445Z,101705.61
2023-05-04T19:23:08.209Z,101708.34
2023-05-04T19:25:44.012Z,101710.67
2023-05-04T19:28:17.156Z,101710.31
2023-05-04T19:30:50.320Z,101713.29
2023-05-04T19:33:33.444Z,101723.10
2023-05-04T19:36:19.688Z,101719.98
2023-05-04T19:38:56.861Z,101722.94
2023-05-04T19:41:32.102Z,101724.66
2023-05-04T19:44:10.826Z,101724.38
2023-05-04T19:46:47.303Z,101723.33
2023-05-04T19:49:21.679Z,101725.13
2023-05-04T19:52:01.655Z,101723.73
2023-05-04T19:54:37.592Z,101725.72
2023-05-04T19:57:11.909Z,101729.35
2023-05-04T19:59:47.098Z,101729.00
2023-05-04T20:02:20.680Z,101731.73
2023-05-04T20:04:54.398Z,101732.25
2023-05-04T20:07:27.912Z,101732.11
2023-05-04T20:09:59.546Z,101735.51
2023-05-04T20:12:32.959Z,101741.88
2023-05-04T20:15:08.527Z,101742.42
2023-05-04T20:17:41.708Z,101741.14
2023-05-04T20:20:20.678Z,101742.82
2023-05-04T20:22:55.584Z,101740.12
2023-05-04T20:25:35.683Z,101739.73
2023-05-04T20:28:06.456Z,101742.77
2023-05-04T20:30:38.977Z,101737.40
2023-05-04T20:33:10.506Z,101738.06
2023-05-04T20:35:45.172Z,101734.86
2023-05-04T20:38:20.616Z,101737.42
2023-05-04T20:40:54.126Z,101735.11
2023-05-04T20:43:27.080Z,101733.88
2023-05-04T20:46:04.632Z,101733.92
2023-05-04T20:48:40.451Z,101732.46
2023-05-04T20:51:16.205Z,101732.31
2023-05-04T20:53:49.901Z,101730.14
2023-05-04T20:56:22.665Z,101735.30
2023-05-04T20:58:54.818Z,101732.09
2023-05-04T21:01:30.369Z,101735.96
2023-05-04T21:04:03.464Z,101741.02
2023-05-04T21:06:38.446Z,101742.35
2023-05-04T21:09:12.053Z,101738.61
2023-05-04T21:11:46.230Z,101742.39
2023-05-04T21:14:21.447Z,101747.66
2023-05-04T21:16:56.448Z,101745.64
2023-05-04T21:19:27.743Z,101743.30
2023-05-04T21:21:59.749Z,101745.48
2023-05-04T21:24:33.804Z,101746.45
2023-05-04T21:27:07.611Z,101745.83
2023-05-04T21:29:39.363Z,101748.30
2023-05-04T21:32:11.971Z,101746.33
2023-05-04T21:34:51.236Z,101743.17
2023-05-04T21:37:26.966Z,101739.23
2023-05-04T21:39:59.408Z,101738.38
2023-05-04T21:42:30.752Z,101741.08
2023-05-04T21:45:07.141Z,101741.80
2023-05-04T21:47:43.099Z,101742.65
2023-05-04T21:50:20.515Z,101739.32
2023-05-04T21:52:54.059Z,101743.17
2023-05-04T21:55:30.510Z,101746.33
2023-05-04T21:58:03.945Z,101743.00
2023-05-04T22:00:38.746Z,101750.68
2023-05-04T22:03:14.866Z,101753.25
2023-05-04T22:05:59.516Z,101749.36
2023-05-04T22:08:39.138Z,101749.08
2023-05-04T22:11:12.961Z,101746.86
2023-05-04T22:13:46.562Z,101747.05
2023-05-04T22:16:23.494Z,101747.13
2023-05-04T22:18:56.283Z,101747.95
2023-05-04T22:21:28.962Z,101749.28
2023-05-04T22:24:02.238Z,101749.01
2023-05-04T22:26:36.159Z,101752.55
2023-05-04T22:29:15.452Z,101758.10
2023-05-04T22:31:47.473Z,101764.80
2023-05-04T22:34:21.704Z,101769.95
2023-05-04T22:36:54.465Z,101767.27
2023-05-04T22:39:32.231Z,101769.36
2023-05-04T22:42:10.744Z,101770.02
2023-05-04T22:44:45.371Z,101770.25
2023-05-04T22:47:25.796Z,101772.61
2023-05-04T22:50:03.013Z,101772.31
2023-05-04T22:52:35.089Z,101769.51
2023-05-04T22:55:17.895Z,101768.25
2023-05-04T22:57:52.258Z,101768.74
2023-05-04T23:00:26.398Z,101765.63
2023-05-04T23:03:04.177Z,101766.29
2023-05-04T23:05:37.414Z,101761.61
2023-05-04T23:08:10.420Z,101759.08
2023-05-04T23:10:46.028Z,101759.31
2023-05-04T23:13:20.168Z,101759.50
2023-05-04T23:15:56.986Z,101762.94
2023-05-04T23:18:28.896Z,101769.36
2023-05-04T23:21:04.670Z,101765.36
2023-05-04T23:23:42.183Z,101766.48
2023-05-04T23:26:16.385Z,101767.67
2023-05-04T23:28:52.925Z,101768.08
2023-05-04T23:31:30.554Z,101768.95
2023-05-04T23:34:06.134Z,101768.05
2023-05-04T23:36:39.077Z,101767.52
2023-05-04T23:39:11.786Z,101763.12
2023-05-04T23:41:44.686Z,101757.09
2023-05-04T23:44:18.295Z,101751.57
2023-05-04T23:46:51.418Z,101748.81
2023-05-04T23:49:27.781Z,101749.66
2023-05-04T23:52:02.063Z,101752.88
2023-05-04T23:54:35.145Z,101745.20
2023-05-04T23:57:08.389Z,101746.21
2023-05-04T23:59:41.587Z,101752.92
